createdAt,value
2017-08-30T00:00:40.635Z,22.44
2017-08-30T00:01:40.299Z,22.47
2017-08-30T00:02:40.610Z,22.43
2017-08-30T00:03:40.606Z,22.46
2017-08-30T00:04:40.279Z,22.5
2017-08-30T00:05:40.471Z,22.46
2017-08-30T00:06:40.260Z,22.46
2017-08-30T00:07:40.256Z,22.62
2017-08-30T00:08:40.254Z,22.54
2017-08-30T00:09:40.562Z,22.59
2017-08-30T00:10:40.231Z,22.57
2017-08-30T00:11:40.227Z,22.57
2017-08-30T00:12:40.535Z,22.56
2017-08-30T00:13:40.555Z,22.6
2017-08-30T00:14:40.519Z,22.57
2017-08-30T00:15:39.874Z,22.6
2017-08-30T00:16:40.186Z,22.59
2017-08-30T00:17:39.858Z,22.62
2017-08-30T00:18:40.173Z,22.54
2017-08-30T00:19:40.162Z,22.59
2017-08-30T00:20:39.836Z,22.53
2017-08-30T00:21:40.473Z,22.59
2017-08-30T00:22:40.173Z,22.67
2017-08-30T00:23:39.815Z,22.57
2017-08-30T00:24:40.453Z,22.57
2017-08-30T00:25:40.120Z,22.59
2017-08-30T00:26:39.795Z,22.56
2017-08-30T00:27:40.429Z,22.54
2017-08-30T00:28:39.782Z,22.62
2017-08-30T00:29:40.090Z,22.6
2017-08-30T00:30:40.085Z,22.62
2017-08-30T00:31:40.078Z,22.64
2017-08-30T00:32:40.069Z,22.64
2017-08-30T00:33:39.741Z,22.59
2017-08-30T00:34:40.375Z,22.59
2017-08-30T00:35:40.398Z,22.64
2017-08-30T00:36:39.741Z,22.6
2017-08-30T00:37:40.032Z,22.65
2017-08-30T00:38:39.705Z,22.59
2017-08-30T00:39:40.019Z,22.54
2017-08-30T00:40:40.332Z,22.59
2017-08-30T00:41:40.322Z,22.56
2017-08-30T00:42:39.675Z,22.59
2017-08-30T00:43:39.991Z,22.6
2017-08-30T00:44:40.303Z,22.56
2017-08-30T00:45:40.023Z,22.54
2017-08-30T00:46:39.972Z,22.59
2017-08-30T00:47:39.642Z,22.49
2017-08-30T00:48:39.634Z,22.47
2017-08-30T00:49:39.946Z,22.44
2017-08-30T00:50:39.938Z,22.47
2017-08-30T00:51:39.614Z,22.49
2017-08-30T00:52:40.254Z,22.46
2017-08-30T00:53:40.242Z,22.46
2017-08-30T00:54:39.590Z,22.46
2017-08-30T00:55:39.903Z,22.47
2017-08-30T00:56:39.899Z,22.46
2017-08-30T00:57:39.887Z,22.47
2017-08-30T00:58:39.909Z,22.44
2017-08-30T00:59:40.231Z,22.46
2017-08-30T01:00:39.897Z,22.46
2017-08-30T01:01:39.897Z,22.39
2017-08-30T01:02:40.196Z,22.47
2017-08-30T01:03:39.522Z,22.44
2017-08-30T01:04:40.159Z,22.37
2017-08-30T01:05:39.832Z,22.35
2017-08-30T01:06:39.501Z,22.34
2017-08-30T01:07:39.820Z,22.31
2017-08-30T01:08:39.809Z,22.29
2017-08-30T01:09:40.136Z,22.32
2017-08-30T01:10:39.791Z,22.23
2017-08-30T01:11:40.107Z,22.28
2017-08-30T01:12:39.779Z,22.22
2017-08-30T01:13:39.770Z,22.19
2017-08-30T01:14:39.767Z,22.22
2017-08-30T01:15:40.079Z,22.12
2017-08-30T01:16:39.756Z,22.06
2017-08-30T01:17:40.067Z,22.13
2017-08-30T01:18:40.057Z,22.07
2017-08-30T01:19:39.727Z,22.06
2017-08-30T01:20:39.715Z,21.98
2017-08-30T01:21:39.709Z,22.06
2017-08-30T01:22:40.024Z,21.94
2017-08-30T01:23:40.018Z,21.95
2017-08-30T01:24:40.008Z,21.97
2017-08-30T01:25:39.680Z,21.98
2017-08-30T01:26:39.675Z,22.01
2017-08-30T01:27:39.994Z,21.94
2017-08-30T01:28:39.977Z,21.91
2017-08-30T01:29:39.653Z,21.92
2017-08-30T01:30:39.961Z,21.9
2017-08-30T01:31:39.958Z,21.85
2017-08-30T01:32:39.655Z,21.91
2017-08-30T01:33:39.937Z,21.92
2017-08-30T01:34:39.296Z,21.98
2017-08-30T01:35:39.605Z,21.97
2017-08-30T01:36:39.275Z,22.04
2017-08-30T01:37:39.913Z,21.97
2017-08-30T01:38:39.580Z,21.97
2017-08-30T01:39:39.291Z,21.97
2017-08-30T01:40:39.589Z,21.97
2017-08-30T01:41:39.883Z,21.97
2017-08-30T01:42:39.879Z,21.94
2017-08-30T01:43:39.545Z,22.02
2017-08-30T01:44:39.592Z,22.01
2017-08-30T01:45:39.532Z,21.97
2017-08-30T01:46:39.843Z,22.06
2017-08-30T01:47:39.197Z,22.02
2017-08-30T01:48:39.184Z,22.09
2017-08-30T01:49:39.831Z,22.09
2017-08-30T01:50:39.499Z,22.09
2017-08-30T01:51:39.163Z,22.04
2017-08-30T01:52:39.477Z,22.17
2017-08-30T01:53:39.469Z,22.19
2017-08-30T01:54:39.140Z,22.14
2017-08-30T01:55:39.133Z,22.16
2017-08-30T01:56:39.442Z,22.22
2017-08-30T01:57:39.763Z,22.27
2017-08-30T01:58:39.116Z,22.22
2017-08-30T01:59:39.110Z,22.25
2017-08-30T02:00:39.098Z,22.2
2017-08-30T02:01:39.731Z,22.25
2017-08-30T02:02:39.406Z,22.2
2017-08-30T02:03:39.733Z,22.2
2017-08-30T02:04:39.067Z,22.27
2017-08-30T02:05:39.903Z,22.2
2017-08-30T02:06:39.369Z,22.27
2017-08-30T02:07:39.688Z,22.22
2017-08-30T02:08:39.357Z,22.25
2017-08-30T02:09:39.354Z,22.37
2017-08-30T02:10:39.354Z,22.28
2017-08-30T02:11:39.440Z,22.32
2017-08-30T02:12:39.005Z,22.38
2017-08-30T02:13:39.319Z,22.37
2017-08-30T02:14:39.630Z,22.27
2017-08-30T02:15:38.985Z,22.34
2017-08-30T02:16:39.613Z,22.31
2017-08-30T02:17:39.617Z,22.35
2017-08-30T02:18:38.960Z,22.32
2017-08-30T02:19:39.277Z,22.34
2017-08-30T02:20:39.598Z,22.29
2017-08-30T02:21:39.586Z,22.32
2017-08-30T02:22:39.250Z,22.31
2017-08-30T02:23:39.246Z,22.27
2017-08-30T02:24:39.556Z,22.31
2017-08-30T02:25:39.232Z,22.35
2017-08-30T02:26:38.901Z,22.35
2017-08-30T02:27:39.250Z,22.32
2017-08-30T02:28:39.527Z,22.38
2017-08-30T02:29:39.200Z,22.34
2017-08-30T02:30:39.551Z,22.31
2017-08-30T02:31:38.865Z,22.28
2017-08-30T02:32:38.857Z,22.34
2017-08-30T02:33:39.498Z,22.35
2017-08-30T02:34:39.161Z,22.34
2017-08-30T02:35:38.836Z,22.29
2017-08-30T02:36:39.149Z,22.31
2017-08-30T02:37:39.463Z,22.28
2017-08-30T02:38:39.136Z,22.25
2017-08-30T02:39:39.128Z,22.34
2017-08-30T02:40:39.130Z,22.27
2017-08-30T02:41:39.111Z,22.2
2017-08-30T02:42:39.113Z,22.23
2017-08-30T02:43:39.095Z,22.22
2017-08-30T02:44:38.781Z,22.23
2017-08-30T02:45:39.402Z,22.22
2017-08-30T02:46:39.085Z,22.07
2017-08-30T02:47:39.397Z,22.12
2017-08-30T02:48:39.068Z,22.1
2017-08-30T02:49:39.051Z,22.16
2017-08-30T02:50:38.720Z,22.07
2017-08-30T02:51:39.038Z,22.09
2017-08-30T02:52:38.744Z,22.07
2017-08-30T02:53:39.022Z,22.12
2017-08-30T02:54:38.696Z,21.99
2017-08-30T02:55:39.006Z,22.01
2017-08-30T02:56:39.000Z,22.01
2017-08-30T02:57:38.994Z,22.01
2017-08-30T02:58:39.310Z,21.99
2017-08-30T02:59:38.977Z,21.99
2017-08-30T03:00:38.965Z,21.97
2017-08-30T03:01:38.962Z,21.9
2017-08-30T03:02:39.000Z,21.94
2017-08-30T03:03:38.629Z,21.91
2017-08-30T03:04:38.937Z,21.85
2017-08-30T03:05:39.287Z,21.88
2017-08-30T03:06:38.923Z,21.85
2017-08-30T03:07:38.965Z,21.85
2017-08-30T03:08:38.907Z,21.75
2017-08-30T03:09:39.226Z,21.79
2017-08-30T03:10:39.216Z,21.81
2017-08-30T03:11:38.565Z,21.74
2017-08-30T03:12:38.567Z,21.76
2017-08-30T03:13:39.195Z,21.82
2017-08-30T03:14:38.861Z,21.75
2017-08-30T03:15:38.860Z,21.74
2017-08-30T03:16:38.524Z,21.79
2017-08-30T03:17:38.518Z,21.75
2017-08-30T03:18:38.514Z,21.71
2017-08-30T03:19:38.508Z,21.64
2017-08-30T03:20:38.869Z,21.69
2017-08-30T03:21:38.488Z,21.69
2017-08-30T03:22:38.805Z,21.63
2017-08-30T03:23:38.479Z,21.56
2017-08-30T03:24:39.113Z,21.66
2017-08-30T03:25:39.102Z,21.6
2017-08-30T03:26:38.776Z,21.53
2017-08-30T03:27:38.783Z,21.56
2017-08-30T03:28:39.085Z,21.59
2017-08-30T03:29:38.427Z,21.54
2017-08-30T03:30:38.751Z,21.53
2017-08-30T03:31:38.736Z,21.51
2017-08-30T03:32:38.781Z,21.53
2017-08-30T03:33:39.066Z,21.51
2017-08-30T03:34:38.711Z,21.5
2017-08-30T03:35:38.383Z,21.38
2017-08-30T03:36:38.694Z,21.45
2017-08-30T03:37:38.687Z,21.38
2017-08-30T03:38:38.678Z,21.36
2017-08-30T03:39:38.349Z,21.26
2017-08-30T03:40:38.339Z,21.24
2017-08-30T03:41:38.655Z,21.23
2017-08-30T03:42:38.648Z,21.35
2017-08-30T03:43:38.640Z,21.34
2017-08-30T03:44:38.949Z,21.3
2017-08-30T03:45:38.633Z,21.26
2017-08-30T03:46:38.295Z,21.23
2017-08-30T03:47:38.607Z,21.13
2017-08-30T03:48:38.603Z,21.09
2017-08-30T03:49:38.915Z,21.09
2017-08-30T03:50:38.909Z,21.05
2017-08-30T03:51:38.580Z,21.05
2017-08-30T03:52:38.246Z,21.05
2017-08-30T03:53:38.559Z,20.96
2017-08-30T03:54:38.594Z,20.93
2017-08-30T03:55:38.878Z,20.95
2017-08-30T03:56:38.213Z,20.95
2017-08-30T03:57:38.528Z,20.89
2017-08-30T03:58:38.837Z,20.86
2017-08-30T03:59:38.837Z,20.77
2017-08-30T04:00:38.829Z,20.8
2017-08-30T04:01:38.501Z,20.81
2017-08-30T04:02:38.808Z,20.81
2017-08-30T04:03:38.162Z,20.81
2017-08-30T04:04:38.480Z,20.79
2017-08-30T04:05:38.347Z,20.66
2017-08-30T04:06:38.456Z,20.66
2017-08-30T04:07:38.771Z,20.69
2017-08-30T04:08:38.445Z,20.62
2017-08-30T04:09:38.437Z,20.61
2017-08-30T04:10:38.102Z,20.54
2017-08-30T04:11:38.743Z,20.53
2017-08-30T04:12:38.729Z,20.49
2017-08-30T04:13:38.403Z,20.43
2017-08-30T04:14:38.711Z,20.49
2017-08-30T04:15:38.740Z,20.43
2017-08-30T04:16:38.373Z,20.41
2017-08-30T04:17:38.043Z,20.46
2017-08-30T04:18:38.363Z,20.41
2017-08-30T04:19:38.350Z,20.41
2017-08-30T04:20:38.360Z,20.39
2017-08-30T04:21:38.334Z,20.35
2017-08-30T04:22:38.328Z,20.35
2017-08-30T04:23:38.316Z,20.39
2017-08-30T04:24:37.987Z,20.34
2017-08-30T04:25:38.303Z,20.38
2017-08-30T04:26:37.972Z,20.41
2017-08-30T04:27:38.606Z,20.43
2017-08-30T04:28:38.271Z,20.41
2017-08-30T04:29:38.263Z,20.41
2017-08-30T04:30:38.280Z,20.31
2017-08-30T04:31:38.568Z,20.33
2017-08-30T04:32:38.240Z,20.39
2017-08-30T04:33:38.551Z,20.39
2017-08-30T04:34:38.221Z,20.42
2017-08-30T04:35:37.893Z,20.25
2017-08-30T04:36:37.889Z,20.27
2017-08-30T04:37:38.203Z,20.25
2017-08-30T04:38:38.517Z,20.33
2017-08-30T04:39:38.185Z,20.25
2017-08-30T04:40:38.493Z,20.31
2017-08-30T04:41:38.162Z,20.33
2017-08-30T04:42:38.483Z,20.28
2017-08-30T04:43:38.544Z,20.28
2017-08-30T04:44:38.139Z,20.3
2017-08-30T04:45:38.453Z,20.33
2017-08-30T04:46:38.440Z,20.31
2017-08-30T04:47:38.111Z,20.25
2017-08-30T04:48:37.783Z,20.24
2017-08-30T04:49:38.094Z,20.3
2017-08-30T04:50:38.082Z,20.25
2017-08-30T04:51:38.403Z,20.18
2017-08-30T04:52:38.068Z,20.31
2017-08-30T04:53:38.378Z,20.3
2017-08-30T04:54:38.379Z,20.3
2017-08-30T04:55:38.384Z,20.27
2017-08-30T04:56:37.714Z,20.3
2017-08-30T04:57:37.716Z,20.28
2017-08-30T04:58:38.021Z,20.27
2017-08-30T04:59:38.017Z,20.25
2017-08-30T05:00:38.317Z,20.3
2017-08-30T05:01:37.998Z,20.28
2017-08-30T05:02:37.984Z,20.34
2017-08-30T05:03:37.977Z,20.31
2017-08-30T05:04:37.648Z,20.41
2017-08-30T05:05:37.964Z,20.38
2017-08-30T05:06:37.959Z,20.27
2017-08-30T05:07:37.943Z,20.31
2017-08-30T05:08:37.656Z,20.49
2017-08-30T05:09:37.605Z,20.39
2017-08-30T05:10:38.240Z,20.39
2017-08-30T05:11:37.912Z,20.46
2017-08-30T05:12:38.274Z,20.42
2017-08-30T05:13:38.217Z,20.42
2017-08-30T05:14:37.891Z,20.49
2017-08-30T05:15:37.552Z,20.46
2017-08-30T05:16:37.862Z,20.43
2017-08-30T05:17:37.855Z,20.43
2017-08-30T05:18:37.526Z,20.47
2017-08-30T05:19:38.156Z,20.38
2017-08-30T05:20:37.827Z,20.34
2017-08-30T05:21:37.504Z,20.39
2017-08-30T05:22:37.487Z,20.35
2017-08-30T05:23:37.804Z,20.39
2017-08-30T05:24:37.475Z,20.46
2017-08-30T05:25:37.788Z,20.38
2017-08-30T05:26:37.778Z,20.39
2017-08-30T05:27:37.768Z,20.39
2017-08-30T05:28:38.085Z,20.5
2017-08-30T05:29:37.440Z,20.42
2017-08-30T05:30:37.422Z,20.41
2017-08-30T05:31:37.734Z,20.46
2017-08-30T05:32:38.055Z,20.42
2017-08-30T05:33:37.720Z,20.42
2017-08-30T05:34:37.705Z,20.5
2017-08-30T05:35:37.700Z,20.41
2017-08-30T05:36:37.699Z,20.43
2017-08-30T05:37:37.686Z,20.42
2017-08-30T05:38:37.355Z,20.42
2017-08-30T05:39:37.667Z,20.49
2017-08-30T05:40:37.666Z,20.54
2017-08-30T05:41:37.973Z,20.5
2017-08-30T05:42:37.325Z,20.5
2017-08-30T05:43:37.960Z,20.5
2017-08-30T05:44:37.623Z,20.51
2017-08-30T05:45:37.616Z,20.61
2017-08-30T05:46:37.636Z,20.58
2017-08-30T05:47:37.276Z,20.69
2017-08-30T05:48:37.588Z,20.62
2017-08-30T05:49:37.262Z,20.69
2017-08-30T05:50:37.255Z,20.8
2017-08-30T05:51:37.886Z,20.69
2017-08-30T05:52:37.875Z,20.81
2017-08-30T05:53:37.552Z,20.93
2017-08-30T05:54:37.548Z,20.9
2017-08-30T05:55:37.541Z,20.93
2017-08-30T05:56:37.534Z,20.91
2017-08-30T05:57:37.198Z,21.01
2017-08-30T05:58:37.512Z,21.06
2017-08-30T05:59:37.499Z,21.14
2017-08-30T06:00:37.490Z,21.19
2017-08-30T06:01:37.493Z,21.29
2017-08-30T06:02:37.794Z,21.26
2017-08-30T06:03:37.462Z,21.34
2017-08-30T06:04:37.140Z,21.36
2017-08-30T06:05:37.331Z,21.42
2017-08-30T06:06:37.442Z,21.42
2017-08-30T06:07:37.120Z,21.38
2017-08-30T06:08:37.426Z,21.46
2017-08-30T06:09:37.423Z,21.6
2017-08-30T06:10:37.736Z,21.57
2017-08-30T06:11:37.434Z,21.46
2017-08-30T06:12:37.396Z,21.5
2017-08-30T06:13:37.392Z,21.59
2017-08-30T06:14:37.058Z,21.59
2017-08-30T06:15:37.690Z,21.57
2017-08-30T06:16:37.362Z,21.63
2017-08-30T06:17:37.032Z,21.66
2017-08-30T06:18:37.028Z,21.74
2017-08-30T06:19:37.663Z,21.82
2017-08-30T06:20:37.011Z,21.79
2017-08-30T06:21:37.332Z,21.76
2017-08-30T06:22:37.317Z,21.76
2017-08-30T06:23:37.310Z,21.82
2017-08-30T06:24:37.628Z,21.83
2017-08-30T06:25:37.614Z,21.9
2017-08-30T06:26:37.293Z,21.92
2017-08-30T06:27:36.963Z,21.97
2017-08-30T06:28:37.274Z,21.98
2017-08-30T06:29:36.949Z,22.01
2017-08-30T06:30:36.939Z,21.99
2017-08-30T06:31:37.579Z,22.04
2017-08-30T06:32:37.245Z,22.1
2017-08-30T06:33:37.239Z,22.14
2017-08-30T06:34:36.908Z,22.1
2017-08-30T06:35:37.226Z,22.09
2017-08-30T06:36:37.212Z,22.2
2017-08-30T06:37:37.536Z,22.22
2017-08-30T06:38:37.206Z,22.22
2017-08-30T06:39:37.513Z,22.35
2017-08-30T06:40:36.870Z,22.28
2017-08-30T06:41:37.179Z,22.32
2017-08-30T06:42:37.171Z,22.32
2017-08-30T06:43:36.841Z,22.43
2017-08-30T06:44:37.530Z,22.46
2017-08-30T06:45:37.469Z,22.47
2017-08-30T06:46:37.138Z,22.47
2017-08-30T06:47:36.816Z,22.52
2017-08-30T06:48:37.127Z,22.47
2017-08-30T06:49:37.194Z,22.49
2017-08-30T06:50:37.114Z,22.49
2017-08-30T06:51:37.112Z,22.6
2017-08-30T06:52:37.100Z,22.52
2017-08-30T06:53:36.771Z,22.49
2017-08-30T06:54:36.763Z,22.47
2017-08-30T06:55:37.080Z,22.49
2017-08-30T06:56:37.117Z,22.47
2017-08-30T06:57:36.742Z,22.49
2017-08-30T06:58:37.059Z,22.49
2017-08-30T06:59:37.053Z,22.46
2017-08-30T07:00:36.725Z,22.54
2017-08-30T07:01:37.036Z,22.59
2017-08-30T07:02:37.029Z,22.53
2017-08-30T07:03:37.023Z,22.69
2017-08-30T07:04:37.015Z,22.68
2017-08-30T07:05:37.328Z,22.72
2017-08-30T07:06:36.676Z,22.84
2017-08-30T07:07:36.673Z,22.9
2017-08-30T07:08:36.986Z,22.99
2017-08-30T07:09:37.302Z,23.2
2017-08-30T07:10:36.974Z,23.14
2017-08-30T07:11:37.001Z,23.26
2017-08-30T07:12:36.641Z,23.31
2017-08-30T07:13:37.279Z,23.38
2017-08-30T07:14:36.953Z,23.43
2017-08-30T07:15:36.946Z,23.45
2017-08-30T07:16:37.252Z,23.5
2017-08-30T07:17:36.937Z,23.55
2017-08-30T07:18:37.247Z,23.65
2017-08-30T07:19:36.914Z,23.72
2017-08-30T07:20:37.245Z,23.75
2017-08-30T07:21:36.906Z,23.77
2017-08-30T07:22:36.899Z,23.76
2017-08-30T07:23:36.571Z,23.86
2017-08-30T07:24:36.561Z,23.82
2017-08-30T07:25:36.882Z,23.9
2017-08-30T07:26:36.883Z,24
2017-08-30T07:27:36.868Z,23.92
2017-08-30T07:28:36.879Z,23.92
2017-08-30T07:29:36.889Z,24.01
2017-08-30T07:30:37.187Z,23.94
2017-08-30T07:31:37.167Z,23.95
2017-08-30T07:32:36.840Z,24
2017-08-30T07:33:36.829Z,23.97
2017-08-30T07:34:36.502Z,24
2017-08-30T07:35:36.870Z,24.05
2017-08-30T07:36:36.493Z,24.05
2017-08-30T07:37:36.809Z,24.08
2017-08-30T07:38:36.798Z,24.08
2017-08-30T07:39:36.801Z,24.16
2017-08-30T07:40:36.796Z,24.16
2017-08-30T07:41:37.102Z,24.2
2017-08-30T07:42:37.099Z,24.17
2017-08-30T07:43:37.100Z,24.19
2017-08-30T07:44:37.088Z,24.17
2017-08-30T07:45:37.080Z,24.14
2017-08-30T07:46:37.086Z,24.14
2017-08-30T07:47:37.073Z,24.07
2017-08-30T07:48:36.742Z,24
2017-08-30T07:49:36.739Z,23.94
2017-08-30T07:50:36.462Z,24
2017-08-30T07:51:37.050Z,23.89
2017-08-30T07:52:36.399Z,23.86
2017-08-30T07:53:36.714Z,23.72
2017-08-30T07:54:36.387Z,23.76
2017-08-30T07:55:36.701Z,23.75
2017-08-30T07:56:37.024Z,23.64
2017-08-30T07:57:37.009Z,23.67
2017-08-30T07:58:36.684Z,23.6
2017-08-30T07:59:36.685Z,23.52
2017-08-30T08:00:36.722Z,23.53
2017-08-30T08:01:36.668Z,23.52
2017-08-30T08:02:36.662Z,23.45
2017-08-30T08:03:36.998Z,23.53
2017-08-30T08:04:36.649Z,23.47
2017-08-30T08:05:37.175Z,23.35
2017-08-30T08:06:36.318Z,23.52
2017-08-30T08:07:36.637Z,23.45
2017-08-30T08:08:36.951Z,23.57
2017-08-30T08:09:36.939Z,23.52
2017-08-30T08:10:36.612Z,23.58
2017-08-30T08:11:36.611Z,23.53
2017-08-30T08:12:36.603Z,23.67
2017-08-30T08:13:36.597Z,23.62
2017-08-30T08:14:36.277Z,23.71
2017-08-30T08:15:36.933Z,23.65
2017-08-30T08:16:36.266Z,23.72
2017-08-30T08:17:36.576Z,23.7
2017-08-30T08:18:36.560Z,23.7
2017-08-30T08:19:36.556Z,23.7
2017-08-30T08:20:36.877Z,23.68
2017-08-30T08:21:36.869Z,23.87
2017-08-30T08:22:36.219Z,23.94
2017-08-30T08:23:36.532Z,23.94
2017-08-30T08:24:36.849Z,24.07
2017-08-30T08:25:36.575Z,24.19
2017-08-30T08:26:36.519Z,24.23
2017-08-30T08:27:36.188Z,24.41
2017-08-30T08:28:36.502Z,24.56
2017-08-30T08:29:36.824Z,24.57
2017-08-30T08:30:36.513Z,24.67
2017-08-30T08:31:36.488Z,24.76
2017-08-30T08:32:36.182Z,24.85
2017-08-30T08:33:36.482Z,24.79
2017-08-30T08:34:36.471Z,24.95
2017-08-30T08:35:36.788Z,25.07
2017-08-30T08:36:36.139Z,25.07
2017-08-30T08:37:36.782Z,25.05
2017-08-30T08:38:36.130Z,25.05
2017-08-30T08:39:36.444Z,25.13
2017-08-30T08:40:36.758Z,25.2
2017-08-30T08:41:36.431Z,25.13
2017-08-30T08:42:36.746Z,25.24
2017-08-30T08:43:36.425Z,25.24
2017-08-30T08:44:36.417Z,25.22
2017-08-30T08:45:36.093Z,25.2
2017-08-30T08:46:36.087Z,25.2
2017-08-30T08:47:36.408Z,25.16
2017-08-30T08:48:36.395Z,25.13
2017-08-30T08:49:36.072Z,25.12
2017-08-30T08:50:36.737Z,25.13
2017-08-30T08:51:36.704Z,25.09
2017-08-30T08:52:36.695Z,25.05
2017-08-30T08:53:36.370Z,24.97
2017-08-30T08:54:36.682Z,25.06
2017-08-30T08:55:36.360Z,24.98
2017-08-30T08:56:36.360Z,24.94
2017-08-30T08:57:36.357Z,25.01
2017-08-30T08:58:36.351Z,24.98
2017-08-30T08:59:36.349Z,25.01
2017-08-30T09:00:36.337Z,24.97
2017-08-30T09:01:36.657Z,25.05
2017-08-30T09:02:36.652Z,25.12
2017-08-30T09:03:36.005Z,25.09
2017-08-30T09:04:36.314Z,25.19
2017-08-30T09:05:35.996Z,25.19
2017-08-30T09:06:36.357Z,25.25
2017-08-30T09:07:36.624Z,25.27
2017-08-30T09:08:36.619Z,25.28
2017-08-30T09:09:36.637Z,25.44
2017-08-30T09:10:36.612Z,25.32
2017-08-30T09:11:36.283Z,25.3
2017-08-30T09:12:36.603Z,25.32
2017-08-30T09:13:36.308Z,25.42
2017-08-30T09:14:36.276Z,25.34
2017-08-30T09:15:36.266Z,25.43
2017-08-30T09:16:35.937Z,25.44
2017-08-30T09:17:36.583Z,25.32
2017-08-30T09:18:36.252Z,25.39
2017-08-30T09:19:36.570Z,25.31
2017-08-30T09:20:36.238Z,25.44
2017-08-30T09:21:35.916Z,25.35
2017-08-30T09:22:36.552Z,25.43
2017-08-30T09:23:36.548Z,25.49
2017-08-30T09:24:36.220Z,25.43
2017-08-30T09:25:36.540Z,25.44
2017-08-30T09:26:36.211Z,25.44
2017-08-30T09:27:36.208Z,25.43
2017-08-30T09:28:35.879Z,25.56
2017-08-30T09:29:36.206Z,25.43
2017-08-30T09:30:36.509Z,25.44
2017-08-30T09:31:36.185Z,25.52
2017-08-30T09:32:36.181Z,25.52
2017-08-30T09:33:36.182Z,25.54
2017-08-30T09:34:36.491Z,25.57
2017-08-30T09:35:36.490Z,25.65
2017-08-30T09:36:36.165Z,25.53
2017-08-30T09:37:35.843Z,25.52
2017-08-30T09:38:35.840Z,25.53
2017-08-30T09:39:36.147Z,25.47
2017-08-30T09:40:36.469Z,25.47
2017-08-30T09:41:35.821Z,25.32
2017-08-30T09:42:36.134Z,25.31
2017-08-30T09:43:36.133Z,25.32
2017-08-30T09:44:36.135Z,25.3
2017-08-30T09:45:36.444Z,25.3
2017-08-30T09:46:36.121Z,25.16
2017-08-30T09:47:36.435Z,25.25
2017-08-30T09:48:36.159Z,25.13
2017-08-30T09:49:35.782Z,25.1
2017-08-30T09:50:36.105Z,25.1
2017-08-30T09:51:36.413Z,25.09
2017-08-30T09:52:36.424Z,25.02
2017-08-30T09:53:36.085Z,25.09
2017-08-30T09:54:36.081Z,25.05
2017-08-30T09:55:36.073Z,24.95
2017-08-30T09:56:36.065Z,25
2017-08-30T09:57:36.064Z,25
2017-08-30T09:58:35.738Z,24.88
2017-08-30T09:59:36.053Z,24.87
2017-08-30T10:00:36.044Z,24.8
2017-08-30T10:01:35.718Z,24.68
2017-08-30T10:02:35.715Z,24.64
2017-08-30T10:03:36.403Z,24.59
2017-08-30T10:04:36.022Z,24.6
2017-08-30T10:05:36.223Z,24.56
2017-08-30T10:06:36.015Z,24.54
2017-08-30T10:07:35.683Z,24.54
2017-08-30T10:08:35.685Z,24.45
2017-08-30T10:09:35.995Z,24.41
2017-08-30T10:10:35.994Z,24.38
2017-08-30T10:11:35.988Z,24.47
2017-08-30T10:12:35.977Z,24.45
2017-08-30T10:13:35.656Z,24.47
2017-08-30T10:14:35.648Z,24.53
2017-08-30T10:15:36.283Z,24.53
2017-08-30T10:16:35.961Z,24.54
2017-08-30T10:17:36.282Z,24.59
2017-08-30T10:18:35.626Z,24.59
2017-08-30T10:19:36.262Z,24.6
2017-08-30T10:20:35.621Z,24.6
2017-08-30T10:21:36.256Z,24.6
2017-08-30T10:22:36.311Z,24.64
2017-08-30T10:23:35.937Z,24.63
2017-08-30T10:24:35.918Z,24.61
2017-08-30T10:25:35.583Z,24.64
2017-08-30T10:26:36.219Z,24.67
2017-08-30T10:27:35.575Z,24.73
2017-08-30T10:28:36.209Z,24.73
2017-08-30T10:29:35.883Z,24.77
2017-08-30T10:30:35.894Z,24.67
2017-08-30T10:31:35.921Z,24.77
2017-08-30T10:32:35.549Z,24.85
2017-08-30T10:33:35.541Z,24.76
2017-08-30T10:34:35.861Z,24.85
2017-08-30T10:35:35.858Z,24.91
2017-08-30T10:36:35.851Z,24.95
2017-08-30T10:37:35.894Z,24.95
2017-08-30T10:38:35.846Z,24.97
2017-08-30T10:39:35.512Z,24.92
2017-08-30T10:40:35.887Z,24.92
2017-08-30T10:41:35.877Z,25
2017-08-30T10:42:35.813Z,24.97
2017-08-30T10:43:36.142Z,24.98
2017-08-30T10:44:35.485Z,24.91
2017-08-30T10:45:35.799Z,24.9
2017-08-30T10:46:35.792Z,24.92
2017-08-30T10:47:36.159Z,24.92
2017-08-30T10:48:36.100Z,24.85
2017-08-30T10:49:35.456Z,24.87
2017-08-30T10:50:36.093Z,24.79
2017-08-30T10:51:35.447Z,24.87
2017-08-30T10:52:36.089Z,24.77
2017-08-30T10:53:35.757Z,24.79
2017-08-30T10:54:36.078Z,24.88
2017-08-30T10:55:35.751Z,24.94
2017-08-30T10:56:35.418Z,24.95
2017-08-30T10:57:35.465Z,24.92
2017-08-30T10:58:36.050Z,25.05
2017-08-30T10:59:35.724Z,25
2017-08-30T11:00:36.047Z,25.1
2017-08-30T11:01:35.717Z,25.09
2017-08-30T11:02:35.717Z,25.19
2017-08-30T11:03:35.702Z,25.24
2017-08-30T11:04:35.694Z,25.25
2017-08-30T11:05:35.373Z,25.2
2017-08-30T11:06:35.686Z,25.17
2017-08-30T11:07:36.002Z,25.31
2017-08-30T11:08:35.705Z,25.32
2017-08-30T11:09:35.992Z,25.34
2017-08-30T11:10:35.672Z,25.44
2017-08-30T11:11:35.981Z,25.43
2017-08-30T11:12:35.657Z,25.43
2017-08-30T11:13:35.974Z,25.56
2017-08-30T11:14:35.654Z,25.57
2017-08-30T11:15:35.963Z,25.56
2017-08-30T11:16:35.311Z,25.67
2017-08-30T11:17:35.679Z,25.65
2017-08-30T11:18:35.946Z,25.75
2017-08-30T11:19:35.305Z,25.75
2017-08-30T11:20:35.611Z,25.82
2017-08-30T11:21:35.611Z,25.94
2017-08-30T11:22:35.604Z,26.04
2017-08-30T11:23:35.278Z,26.08
2017-08-30T11:24:35.598Z,26.09
2017-08-30T11:25:35.944Z,26.25
2017-08-30T11:26:35.910Z,26.31
2017-08-30T11:27:35.312Z,26.37
2017-08-30T11:28:35.579Z,26.52
2017-08-30T11:29:35.892Z,26.61
2017-08-30T11:30:35.566Z,26.72
2017-08-30T11:31:35.570Z,26.81
2017-08-30T11:32:35.560Z,26.96
2017-08-30T11:33:35.553Z,27.06
2017-08-30T11:34:35.874Z,27.09
2017-08-30T11:35:35.550Z,27.17
2017-08-30T11:36:35.221Z,27.23
2017-08-30T11:37:35.228Z,27.2
2017-08-30T11:38:35.859Z,27.24
2017-08-30T11:39:35.213Z,27.26
2017-08-30T11:40:35.530Z,27.32
2017-08-30T11:41:35.208Z,27.38
2017-08-30T11:42:35.207Z,27.43
2017-08-30T11:43:35.853Z,27.48
2017-08-30T11:44:35.845Z,27.53
2017-08-30T11:45:35.523Z,27.62
2017-08-30T11:46:35.837Z,27.74
2017-08-30T11:47:35.838Z,27.92
2017-08-30T11:48:35.833Z,28.1
2017-08-30T11:49:35.509Z,28.38
2017-08-30T11:50:35.505Z,28.59
2017-08-30T11:51:35.821Z,28.78
2017-08-30T11:52:35.176Z,29.01
2017-08-30T11:53:35.496Z,29.26
2017-08-30T11:54:35.811Z,29.47
2017-08-30T11:55:35.493Z,29.71
2017-08-30T11:56:35.168Z,29.92
2017-08-30T11:57:35.490Z,30.15
2017-08-30T11:58:35.810Z,30.4
2017-08-30T11:59:35.861Z,30.45
2017-08-30T12:00:35.483Z,30.61
2017-08-30T12:01:35.803Z,30.89
2017-08-30T12:02:35.174Z,31.11
2017-08-30T12:03:35.802Z,31.43
2017-08-30T12:04:35.487Z,31.43
2017-08-30T12:05:35.492Z,31.45
2017-08-30T12:06:36.011Z,31.4
2017-08-30T12:07:35.490Z,31.31
2017-08-30T12:08:35.486Z,31.27
2017-08-30T12:09:35.172Z,31.06
2017-08-30T12:10:35.490Z,31.04
2017-08-30T12:11:35.498Z,31.15
2017-08-30T12:12:35.820Z,31.23
2017-08-30T12:13:35.518Z,31.18
2017-08-30T12:14:35.522Z,31.23
2017-08-30T12:15:35.502Z,31.28
2017-08-30T12:16:35.498Z,31.26
2017-08-30T12:17:35.510Z,31.08
2017-08-30T12:18:35.503Z,30.9
2017-08-30T12:19:35.512Z,30.72
2017-08-30T12:20:35.827Z,30.76
2017-08-30T12:21:35.519Z,30.71
2017-08-30T12:22:35.515Z,30.69
2017-08-30T12:23:35.833Z,30.76
2017-08-30T12:24:35.878Z,30.84
2017-08-30T12:25:35.196Z,30.94
2017-08-30T12:26:35.197Z,30.96
2017-08-30T12:27:35.523Z,31.13
2017-08-30T12:28:35.199Z,31.24
2017-08-30T12:29:35.527Z,31.26
2017-08-30T12:30:35.199Z,31.31
2017-08-30T12:31:35.528Z,31.24
2017-08-30T12:32:35.889Z,31.21
2017-08-30T12:33:35.857Z,30.96
2017-08-30T12:34:35.905Z,30.81
2017-08-30T12:35:35.258Z,30.87
2017-08-30T12:36:35.525Z,30.87
2017-08-30T12:37:35.209Z,30.8
2017-08-30T12:38:35.208Z,30.9
2017-08-30T12:39:35.853Z,30.93
2017-08-30T12:40:35.210Z,30.81
2017-08-30T12:41:35.209Z,30.76
2017-08-30T12:42:35.532Z,30.57
2017-08-30T12:43:35.215Z,30.61
2017-08-30T12:44:35.862Z,30.54
2017-08-30T12:45:35.218Z,30.46
2017-08-30T12:46:35.212Z,30.36
2017-08-30T12:47:35.860Z,30.31
2017-08-30T12:48:35.856Z,30.33
2017-08-30T12:49:35.855Z,30.19
2017-08-30T12:50:35.533Z,30.07
2017-08-30T12:51:35.543Z,30.05
2017-08-30T12:52:35.539Z,29.92
2017-08-30T12:53:35.538Z,29.87
2017-08-30T12:54:35.858Z,29.97
2017-08-30T12:55:35.537Z,30.09